Time;durP1;ratioP1;P1;durP2;ratioP2;P2;SDS_P1;SDS_P2;PMS_P1;PMS_P2;Temp;Humidity;BMP_temperature;BMP_pressure;BME280_temperature;BME280_humidity;BME280_pressure;Samples;Min_cycle;Max_cycle;Signal;HPM_P1;HPM_P2
2022/08/24 00:00:23;;;;;;;2.80;1.25;;;;;;;;;;5082003;28;20224;-76
2022/08/24 00:02:49;;;;;;;2.25;1.20;;;;;;;;;;5062257;28;20226;-76
2022/08/24 00:05:19;;;;;;;2.75;1.42;;;;;;;;;;5066349;28;20212;-76
2022/08/24 00:07:48;;;;;;;2.08;1.33;;;;;;;;;;5051831;28;20305;-76
2022/08/24 00:10:14;;;;;;;1.40;1.30;;;;;;;;;;5077854;28;20214;-76
2022/08/24 00:12:39;;;;;;;1.80;1.33;;;;;;;;;;5039936;28;20223;-76
2022/08/24 00:15:06;;;;;;;1.40;1.25;;;;;;;;;;5054306;28;20218;-75
2022/08/24 00:17:36;;;;;;;2.80;1.40;;;;;;;;;;5061869;28;20210;-75
2022/08/24 00:20:02;;;;;;;1.70;1.33;;;;;;;;;;5070386;28;20223;-76
2022/08/24 00:22:28;;;;;;;3.08;1.50;;;;;;;;;;5062257;28;20258;-75
2022/08/24 00:24:56;;;;;;;2.58;1.40;;;;;;;;;;5075305;28;20228;-75
2022/08/24 00:27:26;;;;;;;3.30;1.40;;;;;;;;;;5057403;28;20270;-75
2022/08/24 00:29:54;;;;;;;1.60;1.50;;;;;;;;;;5065427;28;20250;-75
2022/08/24 00:32:20;;;;;;;2.35;1.60;;;;;;;;;;5072095;28;20230;-75
2022/08/24 00:34:47;;;;;;;1.55;1.40;;;;;;;;;;5055198;28;20211;-76
2022/08/24 00:37:13;;;;;;;2.90;1.48;;;;;;;;;;5074324;28;20304;-75
2022/08/24 00:39:41;;;;;;;3.25;1.70;;;;;;;;;;5042848;28;20758;-76
2022/08/24 00:42:13;;;;;;;5.47;1.40;;;;;;;;;;5054818;28;20237;-75
2022/08/24 00:44:41;;;;;;;3.05;1.60;;;;;;;;;;5037225;28;20296;-75
2022/08/24 00:47:20;;;;;;;2.88;1.48;;;;;;;;;;5057354;28;20218;-77
2022/08/24 00:50:02;;;;;;;2.40;1.52;;;;;;;;;;5043105;28;20698;-76
2022/08/24 00:53:00;;;;;;;1.92;1.48;;;;;;;;;;5059798;28;20230;-76
2022/08/24 00:55:33;;;;;;;2.45;1.42;;;;;;;;;;5066382;28;20222;-76
2022/08/24 00:58:02;;;;;;;3.58;1.58;;;;;;;;;;5049758;28;20246;-76
2022/08/24 01:00:31;;;;;;;2.92;1.50;;;;;;;;;;5035050;28;20291;-76
2022/08/24 01:03:03;;;;;;;1.80;1.30;;;;;;;;;;5046082;28;20578;-76
2022/08/24 01:05:30;;;;;;;2.22;1.50;;;;;;;;;;5069952;28;20641;-77
2022/08/24 01:07:59;;;;;;;1.73;1.30;;;;;;;;;;5082628;28;20221;-77
2022/08/24 01:10:29;;;;;;;3.05;1.63;;;;;;;;;;5030120;28;20219;-76
2022/08/24 01:13:00;;;;;;;1.60;1.40;;;;;;;;;;5059289;28;20225;-76
2022/08/24 01:15:29;;;;;;;1.90;1.40;;;;;;;;;;5051609;28;20225;-77
2022/08/24 01:20:41;;;;;;;2.45;1.40;;;;;;;;;;5062222;28;20218;-77
2022/08/24 01:23:24;;;;;;;4.00;1.70;;;;;;;;;;5058360;28;20740;-77
2022/08/24 01:25:56;;;;;;;4.32;1.40;;;;;;;;;;5049552;28;20307;-77
2022/08/24 01:28:24;;;;;;;4.20;1.75;;;;;;;;;;5024132;28;20283;-77
2022/08/24 01:30:50;;;;;;;3.28;1.67;;;;;;;;;;5029922;28;20214;-76
2022/08/24 01:33:27;;;;;;;3.40;1.52;;;;;;;;;;5042651;28;20218;-77
2022/08/24 01:36:07;;;;;;;1.67;1.48;;;;;;;;;;5062517;28;20236;-77
2022/08/24 01:38:35;;;;;;;2.83;1.38;;;;;;;;;;5079155;28;20233;-76
2022/08/24 01:41:04;;;;;;;1.85;1.40;;;;;;;;;;5035173;28;20231;-77
2022/08/24 01:43:32;;;;;;;2.42;1.50;;;;;;;;;;5072509;28;20222;-77
2022/08/24 01:46:00;;;;;;;2.35;1.45;;;;;;;;;;5065289;28;20589;-77
2022/08/24 01:48:26;;;;;;;4.13;1.67;;;;;;;;;;5060866;28;20210;-77
2022/08/24 01:50:55;;;;;;;2.15;1.40;;;;;;;;;;5047316;28;20674;-76
2022/08/24 01:53:21;;;;;;;2.53;1.52;;;;;;;;;;5049668;28;20303;-77
2022/08/24 01:55:49;;;;;;;1.70;1.50;;;;;;;;;;5041817;28;20210;-78
2022/08/24 01:58:15;;;;;;;3.30;1.60;;;;;;;;;;5053547;28;20206;-77
2022/08/24 02:00:43;;;;;;;2.85;1.70;;;;;;;;;;5048009;28;20735;-76
2022/08/24 02:03:09;;;;;;;2.42;1.52;;;;;;;;;;5062843;28;20715;-77
2022/08/24 02:05:40;;;;;;;2.28;1.63;;;;;;;;;;5032035;28;20250;-76
2022/08/24 02:08:12;;;;;;;2.83;1.65;;;;;;;;;;5062791;28;20225;-77
2022/08/24 02:10:40;;;;;;;2.42;1.60;;;;;;;;;;5050793;28;20276;-77
2022/08/24 02:13:08;;;;;;;2.40;1.67;;;;;;;;;;5043102;28;20217;-77
2022/08/24 02:15:41;;;;;;;1.85;1.52;;;;;;;;;;5051364;28;20304;-76
2022/08/24 02:18:11;;;;;;;2.30;1.50;;;;;;;;;;5044418;28;20306;-76
2022/08/24 02:20:39;;;;;;;3.13;1.70;;;;;;;;;;5044852;28;20302;-76
2022/08/24 02:23:09;;;;;;;3.15;1.70;;;;;;;;;;5061882;28;20226;-77
2022/08/24 02:25:35;;;;;;;2.50;1.30;;;;;;;;;;5050769;28;20294;-76
2022/08/24 02:28:03;;;;;;;1.98;1.52;;;;;;;;;;5042528;28;20271;-75
2022/08/24 02:30:34;;;;;;;2.47;1.48;;;;;;;;;;5059572;28;20455;-76
2022/08/24 02:32:59;;;;;;;5.03;1.50;;;;;;;;;;5094211;28;20723;-75
2022/08/24 02:35:28;;;;;;;1.75;1.55;;;;;;;;;;5039778;28;20222;-76
2022/08/24 02:37:56;;;;;;;1.60;1.50;;;;;;;;;;5059099;28;20215;-76
2022/08/24 02:40:23;;;;;;;3.55;1.75;;;;;;;;;;5041051;28;22147;-75
2022/08/24 02:42:51;;;;;;;1.83;1.50;;;;;;;;;;5084758;28;20226;-76
2022/08/24 02:45:17;;;;;;;3.17;1.40;;;;;;;;;;5044089;28;20703;-76
2022/08/24 02:47:45;;;;;;;4.90;1.95;;;;;;;;;;5041481;28;20309;-76
2022/08/24 02:50:13;;;;;;;2.10;1.90;;;;;;;;;;5062594;28;20226;-76
2022/08/24 02:52:39;;;;;;;2.28;1.65;;;;;;;;;;5046664;28;20225;-76
2022/08/24 02:55:11;;;;;;;2.50;1.73;;;;;;;;;;5038919;28;20209;-76
2022/08/24 02:57:37;;;;;;;2.45;1.60;;;;;;;;;;5044888;28;20745;-76
2022/08/24 03:00:04;;;;;;;5.50;1.90;;;;;;;;;;5059321;28;20343;-76
2022/08/24 03:02:30;;;;;;;3.72;1.60;;;;;;;;;;5048824;28;20222;-75
2022/08/24 03:04:56;;;;;;;2.90;1.73;;;;;;;;;;5057417;28;20645;-75
2022/08/24 03:07:21;;;;;;;3.60;1.60;;;;;;;;;;5066734;28;20226;-75
2022/08/24 03:09:50;;;;;;;4.13;2.17;;;;;;;;;;5030139;28;20210;-75
2022/08/24 03:12:17;;;;;;;3.72;1.70;;;;;;;;;;5074482;28;20226;-76
2022/08/24 03:14:45;;;;;;;2.83;1.90;;;;;;;;;;5060006;28;20225;-75
2022/08/24 03:17:11;;;;;;;2.58;1.70;;;;;;;;;;5063128;28;20584;-76
2022/08/24 03:19:37;;;;;;;2.65;1.90;;;;;;;;;;5044537;28;20210;-76
2022/08/24 03:22:05;;;;;;;2.60;1.75;;;;;;;;;;5060263;28;20238;-76
2022/08/24 03:24:34;;;;;;;2.03;1.85;;;;;;;;;;5052961;28;20218;-76
2022/08/24 03:27:03;;;;;;;3.53;1.60;;;;;;;;;;5043145;28;20222;-76
2022/08/24 03:29:31;;;;;;;2.83;1.75;;;;;;;;;;5043063;28;20333;-76
2022/08/24 03:31:57;;;;;;;1.95;1.48;;;;;;;;;;5064903;28;20235;-76
2022/08/24 03:34:23;;;;;;;2.70;1.80;;;;;;;;;;5048489;28;20232;-75
2022/08/24 03:36:51;;;;;;;3.10;2.05;;;;;;;;;;5060655;28;20703;-76
2022/08/24 03:39:17;;;;;;;1.80;1.70;;;;;;;;;;5063894;28;20301;-75
2022/08/24 03:41:45;;;;;;;3.17;2.10;;;;;;;;;;5046544;28;20233;-74
2022/08/24 03:44:10;;;;;;;6.53;2.00;;;;;;;;;;5058352;28;20215;-76
2022/08/24 03:46:41;;;;;;;3.00;1.80;;;;;;;;;;5030764;28;20234;-75
2022/08/24 03:49:07;;;;;;;1.92;1.70;;;;;;;;;;5043553;28;20935;-76
2022/08/24 03:51:34;;;;;;;2.90;1.73;;;;;;;;;;5047769;28;20735;-76
2022/08/24 03:54:05;;;;;;;5.80;1.80;;;;;;;;;;5060799;28;20221;-76
2022/08/24 03:56:33;;;;;;;3.22;1.92;;;;;;;;;;5067276;28;20214;-76
2022/08/24 03:59:06;;;;;;;3.03;1.90;;;;;;;;;;5058113;28;20214;-76
2022/08/24 04:01:39;;;;;;;3.50;2.05;;;;;;;;;;5044242;28;20226;-76
2022/08/24 04:04:11;;;;;;;4.18;1.90;;;;;;;;;;5056093;28;20244;-76
2022/08/24 04:06:43;;;;;;;5.28;2.13;;;;;;;;;;5050019;28;20592;-76
2022/08/24 04:09:09;;;;;;;3.92;1.90;;;;;;;;;;5056439;28;20214;-76
2022/08/24 04:11:38;;;;;;;2.03;1.90;;;;;;;;;;5042457;28;20214;-76
2022/08/24 04:14:07;;;;;;;3.00;1.88;;;;;;;;;;5041559;28;20742;-76
2022/08/24 04:16:33;;;;;;;5.55;2.25;;;;;;;;;;5060524;28;20278;-76
2022/08/24 04:19:09;;;;;;;3.50;1.75;;;;;;;;;;5051155;28;20268;-76
2022/08/24 04:21:35;;;;;;;2.78;2.00;;;;;;;;;;5038505;28;20237;-76
2022/08/24 04:24:04;;;;;;;4.50;2.17;;;;;;;;;;5042024;28;20272;-76
2022/08/24 04:26:32;;;;;;;4.78;2.30;;;;;;;;;;5044202;28;20218;-76
2022/08/24 04:29:01;;;;;;;2.63;2.22;;;;;;;;;;5056098;28;20215;-76
2022/08/24 04:31:30;;;;;;;4.03;2.10;;;;;;;;;;5023303;28;20909;-76
2022/08/24 04:33:56;;;;;;;3.08;2.22;;;;;;;;;;5065723;28;20648;-75
2022/08/24 04:36:22;;;;;;;5.10;2.65;;;;;;;;;;5038923;28;20231;-76
2022/08/24 04:38:48;;;;;;;2.47;2.08;;;;;;;;;;5041340;28;20206;-76
2022/08/24 04:41:33;;;;;;;4.43;2.47;;;;;;;;;;5077874;28;20734;-76
2022/08/24 04:44:04;;;;;;;3.33;2.30;;;;;;;;;;5029803;28;20217;-76
2022/08/24 04:46:34;;;;;;;2.58;2.13;;;;;;;;;;5079723;28;20242;-76
2022/08/24 04:49:03;;;;;;;3.55;1.98;;;;;;;;;;5087663;28;20270;-76
2022/08/24 04:51:34;;;;;;;3.00;2.13;;;;;;;;;;5046282;28;20213;-76
2022/08/24 04:54:01;;;;;;;3.00;2.30;;;;;;;;;;5048682;28;20760;-77
2022/08/24 04:56:27;;;;;;;3.38;2.60;;;;;;;;;;5061426;28;20290;-77
2022/08/24 04:58:55;;;;;;;3.33;2.15;;;;;;;;;;5045422;28;20219;-77
2022/08/24 05:01:22;;;;;;;2.92;2.15;;;;;;;;;;5040255;28;20714;-76
2022/08/24 05:03:49;;;;;;;2.42;2.03;;;;;;;;;;5050610;28;20218;-77
2022/08/24 05:06:19;;;;;;;2.78;2.33;;;;;;;;;;5053253;28;21022;-77
2022/08/24 05:08:47;;;;;;;2.65;2.13;;;;;;;;;;5069504;28;20758;-77
2022/08/24 05:11:14;;;;;;;4.15;2.38;;;;;;;;;;5050178;28;20202;-77
2022/08/24 05:13:40;;;;;;;3.35;2.17;;;;;;;;;;5069588;28;20248;-77
2022/08/24 05:16:10;;;;;;;2.30;2.10;;;;;;;;;;5045830;28;20708;-77
2022/08/24 05:18:39;;;;;;;3.42;2.28;;;;;;;;;;5071036;28;20213;-76
2022/08/24 05:21:08;;;;;;;2.38;2.05;;;;;;;;;;5045718;28;20223;-76
2022/08/24 05:23:34;;;;;;;3.30;2.30;;;;;;;;;;5080310;28;20304;-77
2022/08/24 05:26:26;;;;;;;6.47;2.40;;;;;;;;;;5034364;28;20333;-77
2022/08/24 05:28:55;;;;;;;3.00;2.47;;;;;;;;;;5060817;28;20269;-77
2022/08/24 05:31:22;;;;;;;2.85;2.22;;;;;;;;;;5049767;28;20726;-76
2022/08/24 05:33:50;;;;;;;2.45;2.25;;;;;;;;;;5050115;28;20222;-76
2022/08/24 05:36:16;;;;;;;3.58;2.53;;;;;;;;;;5059177;28;20363;-77
2022/08/24 05:38:49;;;;;;;3.20;2.30;;;;;;;;;;5075485;28;20268;-76
2022/08/24 05:41:18;;;;;;;6.10;2.58;;;;;;;;;;5051419;28;20317;-77
2022/08/24 05:43:48;;;;;;;3.70;2.40;;;;;;;;;;5067996;28;20234;-77
2022/08/24 05:46:13;;;;;;;4.63;2.55;;;;;;;;;;5045118;28;20267;-77
2022/08/24 05:48:39;;;;;;;6.85;2.58;;;;;;;;;;5051269;28;20218;-76
2022/08/24 05:51:07;;;;;;;4.53;2.45;;;;;;;;;;5077966;28;20206;-76
2022/08/24 05:53:37;;;;;;;6.28;2.38;;;;;;;;;;5061349;28;20252;-77
2022/08/24 05:56:05;;;;;;;3.30;2.42;;;;;;;;;;5085466;28;20931;-76
2022/08/24 05:58:31;;;;;;;3.47;2.53;;;;;;;;;;5041935;28;20226;-76
2022/08/24 06:01:07;;;;;;;4.97;2.70;;;;;;;;;;5045446;28;20265;-77
2022/08/24 06:03:33;;;;;;;5.47;2.40;;;;;;;;;;5083140;28;20237;-76
2022/08/24 06:06:00;;;;;;;3.92;2.58;;;;;;;;;;5059472;28;20814;-77
2022/08/24 06:08:27;;;;;;;6.55;2.55;;;;;;;;;;5061704;28;20253;-77
2022/08/24 06:10:59;;;;;;;4.25;2.78;;;;;;;;;;5060228;28;20333;-76
2022/08/24 06:13:26;;;;;;;2.45;2.22;;;;;;;;;;5068733;28;20786;-76
2022/08/24 06:16:03;;;;;;;3.30;2.20;;;;;;;;;;5069070;28;20247;-77
2022/08/24 06:18:29;;;;;;;3.53;2.65;;;;;;;;;;5049334;28;20215;-76
2022/08/24 06:21:02;;;;;;;3.63;2.53;;;;;;;;;;5057259;28;20304;-76
2022/08/24 06:23:28;;;;;;;4.25;2.60;;;;;;;;;;5065740;28;20300;-76
2022/08/24 06:28:46;;;;;;;3.63;2.45;;;;;;;;;;5062590;28;20222;-76
2022/08/24 06:31:14;;;;;;;5.10;2.95;;;;;;;;;;5043375;28;20214;-75
2022/08/24 06:33:39;;;;;;;2.67;2.25;;;;;;;;;;5030334;28;20785;-77
2022/08/24 06:36:05;;;;;;;3.22;2.58;;;;;;;;;;5067648;28;20227;-76
2022/08/24 06:38:31;;;;;;;3.00;2.70;;;;;;;;;;5046105;28;20214;-76
2022/08/24 06:40:59;;;;;;;3.83;2.50;;;;;;;;;;5042952;28;20226;-76
2022/08/24 06:43:27;;;;;;;3.75;2.30;;;;;;;;;;5063006;28;20230;-75
2022/08/24 06:45:53;;;;;;;6.53;3.00;;;;;;;;;;5048387;28;20225;-77
2022/08/24 06:48:25;;;;;;;5.28;2.63;;;;;;;;;;5057562;28;20297;-76
2022/08/24 06:50:51;;;;;;;4.68;2.78;;;;;;;;;;5052434;28;20699;-76
2022/08/24 06:53:17;;;;;;;5.25;2.70;;;;;;;;;;5067558;28;20309;-75
2022/08/24 06:55:50;;;;;;;3.83;2.53;;;;;;;;;;5042254;28;20244;-75
2022/08/24 06:58:17;;;;;;;3.17;2.42;;;;;;;;;;5076534;28;20218;-76
2022/08/24 07:00:43;;;;;;;3.67;2.40;;;;;;;;;;5049813;28;20309;-75
2022/08/24 07:03:08;;;;;;;5.70;2.63;;;;;;;;;;5059515;28;20236;-75
2022/08/24 07:05:38;;;;;;;5.45;2.67;;;;;;;;;;5051558;28;20338;-75
2022/08/24 07:08:30;;;;;;;2.78;2.42;;;;;;;;;;5071568;28;20659;-76
2022/08/24 07:10:56;;;;;;;6.18;2.60;;;;;;;;;;5070633;28;20248;-76
2022/08/24 07:13:22;;;;;;;2.50;2.30;;;;;;;;;;5059631;28;20241;-76
2022/08/24 07:15:49;;;;;;;3.08;2.55;;;;;;;;;;5063576;28;20267;-75
2022/08/24 07:18:18;;;;;;;3.10;2.67;;;;;;;;;;5062384;28;20229;-76
2022/08/24 07:20:47;;;;;;;3.95;2.80;;;;;;;;;;5082896;28;20786;-76
2022/08/24 07:27:24;;;;;;;2.85;2.53;;;;;;;;;;4984394;28;20958;-75
2022/08/24 07:29:53;;;;;;;2.58;2.40;;;;;;;;;;4958976;28;20229;-76
2022/08/24 07:32:24;;;;;;;5.38;2.85;;;;;;;;;;5043800;28;20222;-76
2022/08/24 07:34:52;;;;;;;3.75;2.75;;;;;;;;;;5050980;28;20228;-75
2022/08/24 07:37:50;;;;;;;2.70;2.45;;;;;;;;;;5048377;28;20210;-76
2022/08/24 07:40:35;;;;;;;2.65;2.45;;;;;;;;;;5082926;28;20339;-75
2022/08/24 07:43:01;;;;;;;3.63;2.55;;;;;;;;;;5084597;28;20258;-75
2022/08/24 07:45:29;;;;;;;4.53;2.40;;;;;;;;;;5060134;28;20221;-74
2022/08/24 07:47:55;;;;;;;2.75;2.22;;;;;;;;;;5045752;28;20590;-75
2022/08/24 07:50:51;;;;;;;3.95;2.38;;;;;;;;;;5050066;28;20219;-75
2022/08/24 07:53:20;;;;;;;3.35;2.45;;;;;;;;;;5016331;28;20223;-73
2022/08/24 07:55:54;;;;;;;3.42;2.38;;;;;;;;;;5057461;28;20601;-74
2022/08/24 07:58:21;;;;;;;2.97;2.50;;;;;;;;;;5064660;28;20225;-74
2022/08/24 08:00:52;;;;;;;4.38;2.55;;;;;;;;;;5050723;28;20253;-74
2022/08/24 08:03:20;;;;;;;5.18;2.58;;;;;;;;;;5062166;28;20230;-75
2022/08/24 08:05:48;;;;;;;3.35;2.33;;;;;;;;;;5047880;28;20233;-75
2022/08/24 08:08:14;;;;;;;3.35;2.45;;;;;;;;;;5048135;28;20264;-74
2022/08/24 08:10:42;;;;;;;6.03;2.55;;;;;;;;;;5045480;28;20286;-74
2022/08/24 08:13:08;;;;;;;2.53;2.28;;;;;;;;;;5061119;28;20219;-75
2022/08/24 08:15:36;;;;;;;4.25;2.33;;;;;;;;;;5045889;28;20265;-74
2022/08/24 08:18:08;;;;;;;2.60;2.40;;;;;;;;;;5046636;28;20225;-74
2022/08/24 08:20:43;;;;;;;5.55;2.50;;;;;;;;;;5043748;28;20222;-75
2022/08/24 08:26:07;;;;;;;4.60;2.17;;;;;;;;;;5064533;28;20219;-74
2022/08/24 08:28:47;;;;;;;5.88;2.13;;;;;;;;;;5067291;28;20241;-74
2022/08/24 08:31:15;;;;;;;3.30;2.28;;;;;;;;;;5045618;28;20210;-76
2022/08/24 08:33:41;;;;;;;3.55;2.10;;;;;;;;;;5069884;28;20219;-74
2022/08/24 08:36:10;;;;;;;3.70;1.98;;;;;;;;;;5042114;28;20225;-75
2022/08/24 08:38:41;;;;;;;2.35;2.00;;;;;;;;;;5049220;28;20280;-75
2022/08/24 08:41:16;;;;;;;2.50;2.30;;;;;;;;;;5032027;28;20731;-77
2022/08/24 08:44:04;;;;;;;3.75;2.08;;;;;;;;;;5065690;28;20270;-77
2022/08/24 08:46:49;;;;;;;2.53;1.90;;;;;;;;;;5045622;28;20234;-77
2022/08/24 08:49:26;;;;;;;2.30;1.95;;;;;;;;;;5048844;28;20221;-77
2022/08/24 08:52:27;;;;;;;3.33;1.63;;;;;;;;;;5057074;28;20222;-76
2022/08/24 08:54:59;;;;;;;2.80;1.83;;;;;;;;;;5064407;28;20225;-77
2022/08/24 08:57:34;;;;;;;2.40;1.65;;;;;;;;;;5060448;28;20214;-77
2022/08/24 09:00:08;;;;;;;2.20;1.77;;;;;;;;;;5076689;28;20218;-76
2022/08/24 09:03:06;;;;;;;2.50;1.80;;;;;;;;;;5042527;28;20241;-77
2022/08/24 09:06:14;;;;;;;2.05;1.67;;;;;;;;;;5077905;28;20278;-76
2022/08/24 09:08:59;;;;;;;1.83;1.60;;;;;;;;;;5088580;28;20217;-76
2022/08/24 09:11:47;;;;;;;2.80;1.50;;;;;;;;;;5056288;28;20238;-76
2022/08/24 09:14:12;;;;;;;2.45;1.60;;;;;;;;;;5067202;28;20233;-76
2022/08/24 09:16:56;;;;;;;2.22;1.30;;;;;;;;;;5079372;28;20312;-77
2022/08/24 09:19:43;;;;;;;2.00;1.60;;;;;;;;;;5032111;28;20719;-76
2022/08/24 09:22:19;;;;;;;3.45;1.60;;;;;;;;;;5056437;28;20264;-77
2022/08/24 09:24:53;;;;;;;1.67;1.52;;;;;;;;;;5028623;28;20222;-76
2022/08/24 09:27:51;;;;;;;1.95;1.30;;;;;;;;;;5073802;28;20246;-77
2022/08/24 09:30:25;;;;;;;3.20;1.73;;;;;;;;;;5079899;28;20222;-76
2022/08/24 09:32:59;;;;;;;2.53;1.48;;;;;;;;;;5032947;28;20243;-77
2022/08/24 09:35:49;;;;;;;1.75;1.30;;;;;;;;;;5080663;28;20226;-77
2022/08/24 09:38:31;;;;;;;2.50;1.55;;;;;;;;;;5079378;28;20739;-76
2022/08/24 09:41:03;;;;;;;2.38;1.60;;;;;;;;;;5051419;28;20215;-77
2022/08/24 09:43:50;;;;;;;2.72;1.50;;;;;;;;;;5081876;28;20230;-77
2022/08/24 09:46:46;;;;;;;2.53;1.70;;;;;;;;;;5081517;28;20236;-75
2022/08/24 09:49:46;;;;;;;2.83;1.45;;;;;;;;;;5065162;28;20243;-78
2022/08/24 09:52:23;;;;;;;2.33;1.48;;;;;;;;;;5068944;28;20324;-76
2022/08/24 09:55:19;;;;;;;1.88;1.50;;;;;;;;;;5078322;28;20219;-76
2022/08/24 09:58:05;;;;;;;1.88;1.35;;;;;;;;;;5067973;28;20731;-78
2022/08/24 10:01:02;;;;;;;1.98;1.55;;;;;;;;;;5078312;28;20566;-77
2022/08/24 10:04:07;;;;;;;1.55;1.30;;;;;;;;;;5057769;28;20254;-76
2022/08/24 10:06:41;;;;;;;1.77;1.60;;;;;;;;;;5045218;28;20226;-77
2022/08/24 10:09:22;;;;;;;2.40;1.50;;;;;;;;;;5069099;28;20724;-76
2022/08/24 10:12:17;;;;;;;3.05;1.60;;;;;;;;;;5065683;28;20713;-74
2022/08/24 10:15:09;;;;;;;1.67;1.48;;;;;;;;;;5085180;28;20646;-76
2022/08/24 10:18:03;;;;;;;2.55;1.48;;;;;;;;;;5080359;28;20800;-76
2022/08/24 10:20:47;;;;;;;2.53;1.50;;;;;;;;;;5085283;28;20697;-76
2022/08/24 10:23:35;;;;;;;2.17;1.55;;;;;;;;;;5080137;28;20229;-76
2022/08/24 10:26:10;;;;;;;3.72;1.40;;;;;;;;;;5059817;28;20250;-76
2022/08/24 10:29:07;;;;;;;1.90;1.30;;;;;;;;;;5077966;28;20226;-74
2022/08/24 10:31:41;;;;;;;2.45;1.30;;;;;;;;;;5073516;28;20223;-75
2022/08/24 10:34:18;;;;;;;1.85;1.55;;;;;;;;;;5060600;28;20217;-73
2022/08/24 10:37:09;;;;;;;5.13;1.40;;;;;;;;;;5072832;28;20966;-76
2022/08/24 10:40:22;;;;;;;1.63;1.40;;;;;;;;;;5066421;28;20226;-73
2022/08/24 10:46:17;;;;;;;2.72;1.70;;;;;;;;;;5042147;28;20219;-75
2022/08/24 10:48:57;;;;;;;2.00;1.33;;;;;;;;;;5059507;28;20234;-75
2022/08/24 10:51:23;;;;;;;1.65;1.40;;;;;;;;;;5053718;28;20226;-75
2022/08/24 10:53:53;;;;;;;2.55;1.52;;;;;;;;;;5081096;28;20225;-74
2022/08/24 10:57:02;;;;;;;2.88;1.40;;;;;;;;;;5061366;28;20715;-74
2022/08/24 10:59:41;;;;;;;2.20;1.52;;;;;;;;;;5039014;28;20639;-74
2022/08/24 11:02:25;;;;;;;3.90;1.50;;;;;;;;;;5049604;28;20230;-76
2022/08/24 11:04:58;;;;;;;2.60;1.70;;;;;;;;;;5049656;28;20238;-75
2022/08/24 11:07:24;;;;;;;1.88;1.55;;;;;;;;;;5067091;28;20225;-75
2022/08/24 11:09:52;;;;;;;1.65;1.50;;;;;;;;;;5035214;28;20218;-75
2022/08/24 11:12:22;;;;;;;2.13;1.42;;;;;;;;;;5063274;28;20210;-75
2022/08/24 11:14:51;;;;;;;1.83;1.67;;;;;;;;;;5049351;28;20700;-75
2022/08/24 11:17:24;;;;;;;2.00;1.73;;;;;;;;;;5049505;28;20211;-76
2022/08/24 11:19:56;;;;;;;2.75;1.67;;;;;;;;;;5063881;28;20222;-77
2022/08/24 11:22:35;;;;;;;1.67;1.58;;;;;;;;;;5031250;28;20752;-74
2022/08/24 11:25:31;;;;;;;2.95;1.60;;;;;;;;;;5061842;28;20245;-76
2022/08/24 11:28:15;;;;;;;1.65;1.55;;;;;;;;;;5067295;28;20222;-75
2022/08/24 11:30:40;;;;;;;4.82;1.98;;;;;;;;;;5046327;28;20878;-77
2022/08/24 11:33:32;;;;;;;1.67;1.40;;;;;;;;;;5046402;28;20249;-77
2022/08/24 11:35:59;;;;;;;1.92;1.50;;;;;;;;;;5042063;28;20256;-75
2022/08/24 11:38:30;;;;;;;1.70;1.60;;;;;;;;;;5034005;28;20639;-76
2022/08/24 11:41:08;;;;;;;2.35;1.40;;;;;;;;;;5064982;28;20304;-76
2022/08/24 11:44:18;;;;;;;2.60;1.52;;;;;;;;;;5049214;28;20624;-79
2022/08/24 11:46:56;;;;;;;1.83;1.73;;;;;;;;;;5066114;28;20241;-76
2022/08/24 11:49:44;;;;;;;3.05;1.50;;;;;;;;;;5060947;28;20221;-76
2022/08/24 11:52:31;;;;;;;2.78;1.58;;;;;;;;;;5043156;28;20657;-77
2022/08/24 11:55:29;;;;;;;2.97;1.60;;;;;;;;;;5075367;28;20222;-77
2022/08/24 11:57:54;;;;;;;1.95;1.70;;;;;;;;;;5049087;28;20328;-77
2022/08/24 12:00:29;;;;;;;1.95;1.83;;;;;;;;;;5077371;28;20217;-75
2022/08/24 12:03:43;;;;;;;3.95;1.70;;;;;;;;;;5030671;28;20333;-76
2022/08/24 12:06:18;;;;;;;2.20;1.52;;;;;;;;;;5054533;28;20229;-76
2022/08/24 12:09:00;;;;;;;5.60;1.73;;;;;;;;;;5072988;28;20249;-77
2022/08/24 12:11:48;;;;;;;1.77;1.67;;;;;;;;;;5066427;28;20249;-76
2022/08/24 12:14:28;;;;;;;2.38;1.63;;;;;;;;;;5065201;28;20220;-76
2022/08/24 12:16:57;;;;;;;1.58;1.48;;;;;;;;;;5059774;28;20696;-77
2022/08/24 12:19:29;;;;;;;3.35;1.70;;;;;;;;;;5076445;28;20344;-76
2022/08/24 12:21:57;;;;;;;2.05;1.60;;;;;;;;;;5031427;28;20321;-77
2022/08/24 12:24:58;;;;;;;3.42;1.75;;;;;;;;;;5047200;28;20245;-76
2022/08/24 12:27:34;;;;;;;3.55;1.70;;;;;;;;;;5071048;28;20230;-76
2022/08/24 12:30:13;;;;;;;3.42;1.88;;;;;;;;;;5045460;28;20305;-76
2022/08/24 12:32:46;;;;;;;2.33;1.63;;;;;;;;;;5059204;28;20233;-77
2022/08/24 12:35:25;;;;;;;2.70;2.00;;;;;;;;;;5031162;28;20213;-76
2022/08/24 12:37:54;;;;;;;4.03;1.77;;;;;;;;;;5023636;28;20242;-77
2022/08/24 12:40:28;;;;;;;3.50;1.95;;;;;;;;;;5054435;28;20293;-76
2022/08/24 12:43:07;;;;;;;1.83;1.70;;;;;;;;;;5062603;28;20226;-78
2022/08/24 12:45:33;;;;;;;2.25;1.90;;;;;;;;;;5052675;28;20222;-77
2022/08/24 12:48:23;;;;;;;2.88;2.05;;;;;;;;;;5044641;28;20283;-77
2022/08/24 12:50:50;;;;;;;2.78;2.08;;;;;;;;;;5067074;28;20221;-78
2022/08/24 12:53:27;;;;;;;2.20;2.00;;;;;;;;;;5079839;28;20218;-76
2022/08/24 12:55:56;;;;;;;2.35;1.83;;;;;;;;;;5077164;28;20225;-75
2022/08/24 12:58:48;;;;;;;2.22;2.00;;;;;;;;;;5064100;28;20226;-75
2022/08/24 13:01:16;;;;;;;3.50;1.80;;;;;;;;;;5048680;28;20247;-75
2022/08/24 13:03:42;;;;;;;3.35;1.60;;;;;;;;;;5029417;28;20222;-77
2022/08/24 13:06:25;;;;;;;3.65;1.95;;;;;;;;;;5048191;28;20714;-77
2022/08/24 13:08:51;;;;;;;2.05;1.73;;;;;;;;;;5043646;28;20611;-78
2022/08/24 13:11:27;;;;;;;3.88;1.95;;;;;;;;;;5031888;28;20217;-76
2022/08/24 13:13:52;;;;;;;7.93;2.15;;;;;;;;;;5082101;28;20240;-76
2022/08/24 13:16:44;;;;;;;4.05;2.10;;;;;;;;;;5068337;28;20217;-76
2022/08/24 13:19:16;;;;;;;1.73;1.63;;;;;;;;;;5084813;28;20246;-78
2022/08/24 13:21:47;;;;;;;3.38;2.10;;;;;;;;;;5068565;28;20231;-77
2022/08/24 13:24:28;;;;;;;3.00;1.85;;;;;;;;;;5032907;28;20688;-79
2022/08/24 13:27:15;;;;;;;4.00;2.03;;;;;;;;;;5087168;28;20297;-76
2022/08/24 13:29:45;;;;;;;3.50;2.05;;;;;;;;;;5069884;28;20271;-77
2022/08/24 13:32:58;;;;;;;3.72;1.73;;;;;;;;;;5052952;28;20225;-77
2022/08/24 13:35:53;;;;;;;3.65;1.83;;;;;;;;;;5061882;28;20225;-79
2022/08/24 13:38:34;;;;;;;5.25;1.95;;;;;;;;;;5079031;28;20218;-78
2022/08/24 13:41:19;;;;;;;2.80;2.00;;;;;;;;;;5074539;28;20230;-78
2022/08/24 13:43:59;;;;;;;2.45;1.83;;;;;;;;;;5070491;28;20272;-77
2022/08/24 13:46:38;;;;;;;2.80;1.73;;;;;;;;;;5070698;28;20294;-78
2022/08/24 13:49:13;;;;;;;3.00;1.90;;;;;;;;;;5075272;28;20260;-77
2022/08/24 13:51:47;;;;;;;3.92;1.80;;;;;;;;;;5078277;28;20221;-77
2022/08/24 13:54:30;;;;;;;2.55;1.85;;;;;;;;;;5081034;28;20326;-77
2022/08/24 13:57:22;;;;;;;1.75;1.60;;;;;;;;;;5069037;28;20226;-77
2022/08/24 13:59:55;;;;;;;2.60;1.80;;;;;;;;;;5079699;28;20219;-77
2022/08/24 14:02:31;;;;;;;2.53;1.70;;;;;;;;;;5079198;28;20294;-77
2022/08/24 14:05:38;;;;;;;3.03;2.05;;;;;;;;;;5073825;28;20210;-78
2022/08/24 14:08:32;;;;;;;2.13;1.92;;;;;;;;;;5042372;28;20256;-75
2022/08/24 14:11:14;;;;;;;2.67;1.95;;;;;;;;;;5067666;28;20245;-76
2022/08/24 14:14:02;;;;;;;4.88;1.85;;;;;;;;;;5064092;28;20248;-76
2022/08/24 14:19:31;;;;;;;1.80;1.70;;;;;;;;;;5068753;28;20234;-74
2022/08/24 14:22:05;;;;;;;1.83;1.50;;;;;;;;;;5061770;28;20233;-75
2022/08/24 14:24:47;;;;;;;3.42;1.83;;;;;;;;;;5074531;28;20226;-74
2022/08/24 14:27:31;;;;;;;2.22;1.90;;;;;;;;;;5050842;28;20260;-74
2022/08/24 14:30:15;;;;;;;3.13;1.80;;;;;;;;;;5080314;28;20231;-74
2022/08/24 14:33:02;;;;;;;2.90;1.65;;;;;;;;;;5078801;28;20337;-74
2022/08/24 14:35:57;;;;;;;3.70;1.88;;;;;;;;;;5050002;28;21071;-74
2022/08/24 14:38:50;;;;;;;1.98;1.60;;;;;;;;;;5078820;28;20241;-75
2022/08/24 14:41:32;;;;;;;2.75;1.70;;;;;;;;;;5080866;28;20222;-74
2022/08/24 14:44:02;;;;;;;2.85;1.98;;;;;;;;;;5046127;28;20230;-74
2022/08/24 14:46:51;;;;;;;3.08;1.70;;;;;;;;;;5067653;28;20308;-75
2022/08/24 14:49:32;;;;;;;3.47;1.77;;;;;;;;;;5069786;28;20214;-74
2022/08/24 14:52:20;;;;;;;1.90;1.70;;;;;;;;;;5075401;28;20775;-74
2022/08/24 14:55:18;;;;;;;4.32;1.90;;;;;;;;;;5081993;28;20250;-75
2022/08/24 14:57:59;;;;;;;3.17;1.63;;;;;;;;;;5078937;28;20834;-75
2022/08/24 15:00:45;;;;;;;3.75;2.00;;;;;;;;;;5082902;28;20230;-73
2022/08/24 15:03:35;;;;;;;2.28;1.83;;;;;;;;;;5052785;28;20248;-76
2022/08/24 15:06:25;;;;;;;2.15;1.90;;;;;;;;;;5070645;28;20276;-76
2022/08/24 15:09:09;;;;;;;2.45;1.90;;;;;;;;;;5066744;28;20271;-74
2022/08/24 15:11:37;;;;;;;3.42;1.90;;;;;;;;;;5066907;28;20309;-73
2022/08/24 15:14:12;;;;;;;2.03;1.40;;;;;;;;;;5054818;28;20221;-74
2022/08/24 15:16:37;;;;;;;2.97;1.70;;;;;;;;;;5051252;28;20225;-74
2022/08/24 15:19:32;;;;;;;1.77;1.67;;;;;;;;;;5080715;28;20228;-74
2022/08/24 15:21:59;;;;;;;2.28;1.85;;;;;;;;;;5057749;28;20226;-74
2022/08/24 15:24:46;;;;;;;3.40;1.90;;;;;;;;;;5061890;28;20215;-74
2022/08/24 15:27:36;;;;;;;3.20;1.80;;;;;;;;;;5058596;28;20225;-74
2022/08/24 15:30:04;;;;;;;1.80;1.63;;;;;;;;;;5078494;28;20226;-76
2022/08/24 15:32:49;;;;;;;5.47;2.10;;;;;;;;;;5046099;28;20230;-75
2022/08/24 15:35:42;;;;;;;3.53;1.70;;;;;;;;;;5042551;28;20257;-74
2022/08/24 15:38:23;;;;;;;3.00;1.90;;;;;;;;;;5063244;28;20251;-74
2022/08/24 15:41:01;;;;;;;3.78;1.77;;;;;;;;;;5059029;28;20214;-75
2022/08/24 15:43:30;;;;;;;3.53;1.90;;;;;;;;;;5041958;28;20254;-74
2022/08/24 15:45:55;;;;;;;2.13;1.70;;;;;;;;;;5048943;28;20276;-74